createdAt,value
2023-01-10T00:00:27.670Z,99912.97
2023-01-10T00:02:54.318Z,99906.88
2023-01-10T00:05:23.284Z,99910.38
2023-01-10T00:07:50.249Z,99923.47
2023-01-10T00:10:17.099Z,99931.28
2023-01-10T00:13:02.460Z,99935.66
2023-01-10T00:15:35.234Z,99943.50
2023-01-10T00:18:02.303Z,99940.91
2023-01-10T00:20:29.328Z,99955.72
2023-01-10T00:22:59.340Z,99953.97
2023-01-10T00:25:26.795Z,99949.59
2023-01-10T00:28:26.760Z,99953.09
2023-01-10T00:30:55.178Z,99960.97
2023-01-10T00:33:24.255Z,99965.22
2023-01-10T00:35:51.267Z,99961.75
2023-01-10T00:38:20.341Z,99968.72
2023-01-10T00:40:50.143Z,99972.97
2023-01-10T00:43:35.574Z,99974.72
2023-01-10T00:46:06.011Z,99972.97
2023-01-10T00:48:32.714Z,99979.06
2023-01-10T00:50:59.327Z,99987.75
2023-01-10T00:53:26.041Z,99987.78
2023-01-10T00:55:54.837Z,99994.75
2023-01-10T00:58:22.305Z,99998.00
2023-01-10T01:00:49.964Z,99991.88
2023-01-10T01:03:18.871Z,99998.06
2023-01-10T01:05:46.863Z,100000.66
2023-01-10T01:08:15.146Z,100011.06
2023-01-10T01:10:42.106Z,100006.72
2023-01-10T01:13:14.906Z,100018.09
2023-01-10T01:15:42.008Z,100020.66
2023-01-10T01:18:11.441Z,100013.66
2023-01-10T01:20:42.191Z,100018.94
2023-01-10T01:23:08.912Z,100026.72
2023-01-10T01:25:35.866Z,100027.63
2023-01-10T01:28:10.282Z,100028.47
2023-01-10T01:30:36.889Z,100033.69
2023-01-10T01:33:03.497Z,100035.44
2023-01-10T01:35:30.147Z,100041.56
2023-01-10T01:37:56.785Z,100046.00
2023-01-10T01:40:23.690Z,100052.09
2023-01-10T01:42:55.589Z,100056.41
2023-01-10T01:45:22.434Z,100059.06
2023-01-10T01:48:01.831Z,100062.56
2023-01-10T01:50:31.315Z,100078.31
2023-01-10T01:52:59.687Z,100075.66
2023-01-10T01:55:27.457Z,100076.56
2023-01-10T01:57:55.488Z,100084.44
2023-01-10T02:00:22.249Z,100083.41
2023-01-10T02:03:02.640Z,100092.19
2023-01-10T02:05:31.465Z,100080.84
2023-01-10T02:07:59.406Z,100088.69
2023-01-10T02:10:32.656Z,100088.66
2023-01-10T02:13:03.078Z,100093.00
2023-01-10T02:15:30.011Z,100099.25
2023-01-10T02:17:57.735Z,100097.47
2023-01-10T02:20:24.971Z,100103.63
2023-01-10T02:23:03.452Z,100108.00
2023-01-10T02:25:52.492Z,100112.38
2023-01-10T02:28:51.478Z,100122.81
2023-01-10T02:31:26.532Z,100120.25
2023-01-10T02:34:10.312Z,100125.41
2023-01-10T02:36:55.358Z,100121.13
2023-01-10T02:39:44.504Z,100124.63
2023-01-10T02:42:38.145Z,100124.56
2023-01-10T02:45:09.255Z,100133.31
2023-01-10T02:47:40.702Z,100135.97
2023-01-10T02:50:41.418Z,100143.81
2023-01-10T02:53:19.234Z,100152.63
2023-01-10T02:56:00.436Z,100167.50
2023-01-10T02:59:01.176Z,100174.44
2023-01-10T03:01:46.484Z,100177.06
2023-01-10T03:04:37.309Z,100182.25
2023-01-10T03:07:22.901Z,100191.78
2023-01-10T03:09:56.689Z,100187.44
2023-01-10T03:12:36.069Z,100193.53
2023-01-10T03:15:04.695Z,100194.47
2023-01-10T03:17:31.406Z,100206.66
2023-01-10T03:20:01.209Z,100197.06
2023-01-10T03:22:29.426Z,100211.81
2023-01-10T03:24:58.443Z,100208.34
2023-01-10T03:27:37.941Z,100214.47
2023-01-10T03:30:26.587Z,100229.34
2023-01-10T03:32:55.742Z,100236.31
2023-01-10T03:35:25.497Z,100244.09
2023-01-10T03:38:23.273Z,100256.31
2023-01-10T03:40:56.975Z,100261.56
2023-01-10T03:43:50.207Z,100260.72
2023-01-10T03:46:37.405Z,100271.16
2023-01-10T03:49:05.264Z,100274.63
2023-01-10T03:51:32.792Z,100274.63
2023-01-10T03:54:01.170Z,100280.75
2023-01-10T03:56:28.005Z,100286.03
2023-01-10T03:58:54.627Z,100293.88
2023-01-10T04:01:21.442Z,100299.09
2023-01-10T04:03:48.125Z,100303.41
2023-01-10T04:06:14.749Z,100308.72
2023-01-10T04:08:41.712Z,100314.81
2023-01-10T04:11:08.328Z,100320.94
2023-01-10T04:13:35.002Z,100320.94
2023-01-10T04:16:01.713Z,100320.09
2023-01-10T04:18:28.322Z,100334.06
2023-01-10T04:20:54.951Z,100331.47
2023-01-10T04:23:21.635Z,100340.19
2023-01-10T04:25:48.375Z,100353.31
2023-01-10T04:28:15.211Z,100359.38
2023-01-10T04:30:41.881Z,100361.16
2023-01-10T04:33:10.348Z,100363.78
2023-01-10T04:35:36.988Z,100366.38
2023-01-10T04:38:03.632Z,100371.59
2023-01-10T04:40:31.446Z,100374.22
2023-01-10T04:42:58.023Z,100382.94
2023-01-10T04:45:24.649Z,100384.72
2023-01-10T04:47:51.905Z,100388.19
2023-01-10T04:50:18.677Z,100396.94
2023-01-10T04:52:45.342Z,100407.38
2023-01-10T04:55:12.128Z,100407.38
2023-01-10T04:57:38.740Z,100411.75
2023-01-10T05:00:06.220Z,100422.22
2023-01-10T05:02:32.981Z,100421.34
2023-01-10T05:04:59.656Z,100423.97
2023-01-10T05:07:26.270Z,100433.56
2023-01-10T05:09:52.900Z,100433.56
2023-01-10T05:12:19.497Z,100446.63
2023-01-10T05:14:46.110Z,100455.38
2023-01-10T05:17:12.747Z,100464.13
2023-01-10T05:19:39.383Z,100451.88
2023-01-10T05:22:05.982Z,100472.84
2023-01-10T05:24:32.611Z,100471.94
2023-01-10T05:26:59.233Z,100470.19
2023-01-10T05:29:25.797Z,100472.81
2023-01-10T05:31:52.657Z,100476.31
2023-01-10T05:34:19.368Z,100471.97
2023-01-10T05:36:46.086Z,100483.28
2023-01-10T05:39:14.033Z,100484.16
2023-01-10T05:41:40.877Z,100498.13
2023-01-10T05:44:08.031Z,100495.47
2023-01-10T05:46:34.763Z,100501.59
2023-01-10T05:49:01.462Z,100503.31
2023-01-10T05:51:28.247Z,100512.03
2023-01-10T05:53:54.935Z,100519.03
2023-01-10T05:56:21.585Z,100524.25
2023-01-10T05:58:51.434Z,100526.81
2023-01-10T06:01:20.774Z,100525.13
2023-01-10T06:03:47.473Z,100537.31
2023-01-10T06:06:14.442Z,100533.81
2023-01-10T06:08:41.183Z,100542.56
2023-01-10T06:11:09.922Z,100544.28
2023-01-10T06:13:36.570Z,100556.50
2023-01-10T06:16:03.284Z,100551.28
2023-01-10T06:18:30.044Z,100565.25
2023-01-10T06:20:56.921Z,100565.25
2023-01-10T06:23:24.565Z,100576.59
2023-01-10T06:25:51.380Z,100583.53
2023-01-10T06:28:18.306Z,100581.75
2023-01-10T06:30:45.124Z,100585.28
2023-01-10T06:34:29.826Z,100594.03
2023-01-10T06:36:56.532Z,100598.38
2023-01-10T06:39:23.173Z,100600.16
2023-01-10T06:41:49.818Z,100612.34
2023-01-10T06:44:16.501Z,100610.59
2023-01-10T06:46:43.142Z,100614.09
2023-01-10T06:49:09.719Z,100613.22
2023-01-10T06:51:36.331Z,100622.78
2023-01-10T06:54:02.913Z,100626.28
2023-01-10T06:56:29.589Z,100635.00
2023-01-10T06:58:56.369Z,100625.38
2023-01-10T07:01:23.179Z,100634.16
2023-01-10T07:03:49.983Z,100636.75
2023-01-10T07:06:16.707Z,100641.97
2023-01-10T07:08:45.623Z,100656.00
2023-01-10T07:11:13.964Z,100656.84
2023-01-10T07:13:40.604Z,100662.06
2023-01-10T07:16:12.713Z,100667.34
2023-01-10T07:18:40.709Z,100683.00
2023-01-10T07:21:07.944Z,100681.28
2023-01-10T07:23:34.637Z,100684.81
2023-01-10T07:26:05.802Z,100693.50
2023-01-10T07:28:34.444Z,100684.81
2023-01-10T07:31:02.285Z,100702.25
2023-01-10T07:33:29.330Z,100698.78
2023-01-10T07:35:55.951Z,100709.28
2023-01-10T07:38:25.087Z,100707.53
2023-01-10T07:40:51.863Z,100712.75
2023-01-10T07:43:18.557Z,100718.91
2023-01-10T07:45:47.908Z,100730.25
2023-01-10T07:48:14.647Z,100736.34
2023-01-10T07:50:41.270Z,100745.97
2023-01-10T07:53:08.629Z,100741.63
2023-01-10T07:55:39.026Z,100754.69
2023-01-10T07:58:08.023Z,100742.47
2023-01-10T08:00:35.690Z,100748.59
2023-01-10T08:03:02.587Z,100754.72
2023-01-10T08:05:29.444Z,100766.03
2023-01-10T08:07:59.995Z,100766.91
2023-01-10T08:10:27.266Z,100772.13
2023-01-10T08:12:53.887Z,100770.41
2023-01-10T08:15:20.489Z,100781.78
2023-01-10T08:17:47.134Z,100781.72
2023-01-10T08:20:13.746Z,100789.63
2023-01-10T08:22:40.425Z,100787.91
2023-01-10T08:25:07.803Z,100797.50
2023-01-10T08:27:34.467Z,100801.91
2023-01-10T08:30:01.060Z,100804.53
2023-01-10T08:32:27.740Z,100805.41
2023-01-10T08:34:54.312Z,100816.78
2023-01-10T08:37:20.972Z,100822.88
2023-01-10T08:39:47.633Z,100822.91
2023-01-10T08:42:14.370Z,100826.38
2023-01-10T08:44:41.116Z,100822.97
2023-01-10T08:47:08.284Z,100830.78
2023-01-10T08:49:36.134Z,100822.97
2023-01-10T08:52:03.365Z,100822.97
2023-01-10T08:54:30.295Z,100817.75
2023-01-10T08:56:57.237Z,100820.38
2023-01-10T08:59:24.106Z,100820.41
2023-01-10T09:01:50.792Z,100829.97
2023-01-10T09:04:17.567Z,100836.13
2023-01-10T09:06:44.299Z,100835.28
2023-01-10T09:09:10.944Z,100837.88
2023-01-10T09:11:37.669Z,100841.38
2023-01-10T09:14:04.331Z,100856.22
2023-01-10T09:16:31.005Z,100851.88
2023-01-10T09:18:57.614Z,100858.88
2023-01-10T09:21:24.254Z,100859.75
2023-01-10T09:23:50.949Z,100867.69
2023-01-10T09:26:17.690Z,100865.06
2023-01-10T09:28:44.301Z,100867.66
2023-01-10T09:31:12.015Z,100870.28
2023-01-10T09:33:46.819Z,100866.81
2023-01-10T09:36:15.717Z,100865.94
2023-01-10T09:38:42.830Z,100868.56
2023-01-10T09:41:28.769Z,100873.81
2023-01-10T09:44:04.591Z,100866.84
2023-01-10T09:47:21.469Z,100877.34
2023-01-10T09:49:52.516Z,100874.69
2023-01-10T09:52:24.304Z,100881.72
2023-01-10T09:54:52.366Z,100883.47
2023-01-10T09:57:20.500Z,100874.69
2023-01-10T09:59:51.004Z,100874.69
2023-01-10T10:02:20.649Z,100877.34
2023-01-10T10:05:01.240Z,100895.72
2023-01-10T10:07:27.891Z,100887.81
2023-01-10T10:09:54.565Z,100884.31
2023-01-10T10:12:51.703Z,100901.84
2023-01-10T10:15:34.858Z,100903.59
2023-01-10T10:18:23.292Z,100905.31
2023-01-10T10:21:15.129Z,100900.97
2023-01-10T10:24:13.623Z,100900.97
2023-01-10T10:27:00.399Z,100905.31
2023-01-10T10:29:59.428Z,100903.56
2023-01-10T10:32:56.801Z,100906.19
2023-01-10T10:35:28.057Z,100890.47
2023-01-10T10:37:56.940Z,100906.19
2023-01-10T10:40:25.981Z,100903.56
2023-01-10T10:42:54.316Z,100900.94
2023-01-10T10:45:41.079Z,100907.94
2023-01-10T10:48:27.897Z,100923.69
2023-01-10T10:50:59.115Z,100929.81
2023-01-10T10:53:25.933Z,100928.06
2023-01-10T10:55:53.333Z,100927.19
2023-01-10T10:58:20.102Z,100927.19
2023-01-10T11:00:47.424Z,100935.09
2023-01-10T11:03:38.975Z,100941.19
2023-01-10T11:06:07.355Z,100947.28
2023-01-10T11:08:38.288Z,100946.44
2023-01-10T11:11:14.338Z,100954.31
2023-01-10T11:13:48.188Z,100960.47
2023-01-10T11:16:27.474Z,100961.34
2023-01-10T11:19:26.447Z,100953.47
2023-01-10T11:21:57.044Z,100956.06
2023-01-10T11:24:31.852Z,100956.97
2023-01-10T11:27:00.548Z,100948.19
2023-01-10T11:29:42.827Z,100948.19
2023-01-10T11:32:15.090Z,100945.59
2023-01-10T11:34:43.116Z,100946.44
2023-01-10T11:37:24.278Z,100950.81
2023-01-10T11:40:15.243Z,100957.81
2023-01-10T11:42:42.949Z,100954.28
2023-01-10T11:45:21.982Z,100953.44
2023-01-10T11:47:49.993Z,100952.59
2023-01-10T11:50:22.561Z,100958.72
2023-01-10T11:52:49.813Z,100966.59
2023-01-10T11:55:39.328Z,100972.72
2023-01-10T11:58:09.145Z,100977.97
2023-01-10T12:00:45.788Z,100976.22
2023-01-10T12:03:27.396Z,100976.19
2023-01-10T12:05:58.319Z,100981.44
2023-01-10T12:08:26.712Z,100987.59
2023-01-10T12:10:59.062Z,100988.47
2023-01-10T12:13:28.310Z,100984.94
2023-01-10T12:16:15.670Z,100982.34
2023-01-10T12:18:42.431Z,100984.09
2023-01-10T12:21:13.087Z,100983.22
2023-01-10T12:23:41.619Z,100984.97
2023-01-10T12:26:13.089Z,100986.72
2023-01-10T12:28:42.947Z,100986.72
2023-01-10T12:31:14.518Z,100978.84
2023-01-10T12:33:46.694Z,100992.00
2023-01-10T12:36:45.845Z,100991.97
2023-01-10T12:39:23.072Z,100993.72
2023-01-10T12:42:23.714Z,100988.47
2023-01-10T12:44:54.289Z,101004.22
2023-01-10T12:47:39.858Z,101001.59
2023-01-10T12:50:14.089Z,100996.34
2023-01-10T12:52:46.697Z,101008.63
2023-01-10T12:55:17.799Z,101016.50
2023-01-10T12:57:51.554Z,101024.34
2023-01-10T13:00:32.767Z,101024.38
2023-01-10T13:03:05.814Z,101026.13
2023-01-10T13:05:32.913Z,101026.97
2023-01-10T13:08:03.335Z,101026.97
2023-01-10T13:10:31.032Z,101030.47
2023-01-10T13:13:35.244Z,101022.63
2023-01-10T13:16:25.104Z,101025.25
2023-01-10T13:19:05.870Z,101036.59
2023-01-10T13:21:33.844Z,101033.13
2023-01-10T13:24:19.880Z,101030.50
2023-01-10T13:26:53.179Z,101041.00
2023-01-10T13:29:22.643Z,101036.63
2023-01-10T13:31:51.034Z,101032.25
2023-01-10T13:34:19.108Z,101034.88
2023-01-10T13:36:56.532Z,101037.50
2023-01-10T13:39:28.205Z,101037.50
2023-01-10T13:42:16.585Z,101042.75
2023-01-10T13:45:04.401Z,101048.91
2023-01-10T13:47:40.483Z,101046.25
2023-01-10T13:50:22.388Z,101047.13
2023-01-10T13:53:09.301Z,101053.28
2023-01-10T13:55:38.955Z,101051.50
2023-01-10T13:58:47.982Z,101060.25
2023-01-10T14:01:55.229Z,101055.03
2023-01-10T14:04:30.145Z,101048.84
2023-01-10T14:07:01.339Z,101060.22
2023-01-10T14:09:32.714Z,101058.47
2023-01-10T14:12:00.270Z,101066.34
2023-01-10T14:14:39.330Z,101061.03
2023-01-10T14:17:13.066Z,101064.56
2023-01-10T14:19:40.168Z,101065.41
2023-01-10T14:22:07.168Z,101053.16
2023-01-10T14:24:45.173Z,101060.16
2023-01-10T14:27:16.564Z,101061.94
2023-01-10T14:30:00.033Z,101055.78
2023-01-10T14:32:38.682Z,101068.91
2023-01-10T14:35:07.857Z,101072.38
2023-01-10T14:37:42.146Z,101074.94
2023-01-10T14:40:15.060Z,101061.00
2023-01-10T14:42:42.147Z,101057.50
2023-01-10T14:45:23.951Z,101061.88
2023-01-10T14:47:50.648Z,101058.38
2023-01-10T14:50:26.135Z,101060.16
2023-01-10T14:52:52.801Z,101052.25
2023-01-10T14:55:21.630Z,101053.97
2023-01-10T14:57:59.199Z,101058.34
2023-01-10T15:00:34.069Z,101058.28
2023-01-10T15:03:03.921Z,101057.34
2023-01-10T15:05:34.281Z,101070.38
2023-01-10T15:08:25.085Z,101070.47
2023-01-10T15:10:54.968Z,101065.16
2023-01-10T15:13:24.314Z,101077.34
2023-01-10T15:15:51.443Z,101072.97
2023-01-10T15:18:37.562Z,101072.97
2023-01-10T15:21:04.722Z,101067.75
2023-01-10T15:23:35.913Z,101078.22
2023-01-10T15:26:05.600Z,101079.03
2023-01-10T15:28:36.017Z,101079.03
2023-01-10T15:31:08.010Z,101078.16
2023-01-10T15:33:35.723Z,101074.53
2023-01-10T15:36:07.646Z,101079.78
2023-01-10T15:38:36.106Z,101076.16
2023-01-10T15:41:06.042Z,101079.59
2023-01-10T15:43:34.229Z,101080.34
2023-01-10T15:46:02.856Z,101077.66
2023-01-10T15:48:39.978Z,101086.28
2023-01-10T15:51:35.281Z,101092.25
2023-01-10T15:54:03.783Z,101092.16
2023-01-10T15:56:39.586Z,101092.22
2023-01-10T15:59:21.037Z,101090.44
2023-01-10T16:02:16.943Z,101089.50
2023-01-10T16:04:44.977Z,101085.19
2023-01-10T16:07:25.665Z,101097.31
2023-01-10T16:10:00.366Z,101089.38
2023-01-10T16:12:52.697Z,101086.75
2023-01-10T16:15:22.491Z,101094.56
2023-01-10T16:17:49.733Z,101092.84
2023-01-10T16:20:22.275Z,101085.88
2023-01-10T16:22:49.890Z,101079.69
2023-01-10T16:25:22.462Z,101082.28
2023-01-10T16:27:49.123Z,101070.94
2023-01-10T16:30:24.458Z,101076.16
2023-01-10T16:32:51.936Z,101059.50
2023-01-10T16:35:19.667Z,101072.56
2023-01-10T16:37:47.492Z,101061.16
2023-01-10T16:41:00.074Z,101065.47
2023-01-10T16:43:29.135Z,101068.03
2023-01-10T16:46:03.683Z,101067.09
2023-01-10T16:48:31.773Z,101067.09
2023-01-10T16:51:10.929Z,101064.44
2023-01-10T16:53:37.548Z,101059.19
2023-01-10T16:56:04.293Z,101057.41
2023-01-10T16:58:30.912Z,101076.53
2023-01-10T17:00:59.054Z,101072.16
2023-01-10T17:03:26.422Z,101072.94
2023-01-10T17:05:53.067Z,101070.31
2023-01-10T17:08:22.486Z,101070.34
2023-01-10T17:10:52.063Z,101069.44
2023-01-10T17:13:24.110Z,101061.59
2023-01-10T17:15:51.496Z,101066.00
2023-01-10T17:18:18.195Z,101070.31
2023-01-10T17:20:45.276Z,101075.56
2023-01-10T17:23:12.904Z,101084.38
2023-01-10T17:25:39.532Z,101078.28
2023-01-10T17:28:06.157Z,101079.19
2023-01-10T17:30:32.796Z,101085.34
2023-01-10T17:32:59.410Z,101088.97
2023-01-10T17:35:32.450Z,101085.47
2023-01-10T17:37:59.045Z,101077.66
2023-01-10T17:40:26.042Z,101078.59
2023-01-10T17:42:52.751Z,101069.91
2023-01-10T17:45:20.163Z,101074.28
2023-01-10T17:47:46.794Z,101076.09
2023-01-10T17:50:13.459Z,101076.09
2023-01-10T17:52:42.189Z,101082.09
2023-01-10T17:55:09.022Z,101081.22
2023-01-10T17:57:38.145Z,101082.00
2023-01-10T18:00:06.311Z,101083.72
2023-01-10T18:02:33.018Z,101084.50
2023-01-10T18:04:59.695Z,101070.44
2023-01-10T18:07:26.295Z,101077.34
2023-01-10T18:09:54.126Z,101072.94
2023-01-10T18:12:20.790Z,101078.16
2023-01-10T18:14:47.410Z,101080.78
2023-01-10T18:17:14.123Z,101072.06
2023-01-10T18:19:40.779Z,101073.78
2023-01-10T18:22:27.383Z,101074.59
2023-01-10T18:24:54.635Z,101073.72
2023-01-10T18:27:22.486Z,101075.44
2023-01-10T18:29:52.910Z,101075.47
2023-01-10T18:32:21.290Z,101077.19
2023-01-10T18:34:47.940Z,101076.31
2023-01-10T18:37:15.830Z,101078.09
2023-01-10T18:39:45.367Z,101072.84
2023-01-10T18:42:12.015Z,101072.94
2023-01-10T18:44:38.858Z,101064.22
2023-01-10T18:47:06.370Z,101065.09
2023-01-10T18:49:33.350Z,101064.34
2023-01-10T18:52:00.044Z,101056.41
2023-01-10T18:54:28.187Z,101052.03
2023-01-10T18:56:58.133Z,101053.69
2023-01-10T18:59:24.827Z,101053.66
2023-01-10T19:01:51.537Z,101050.97
2023-01-10T19:04:18.721Z,101044.72
2023-01-10T19:06:46.413Z,101036.78
2023-01-10T19:09:13.083Z,101031.53
2023-01-10T19:11:39.725Z,101030.53
2023-01-10T19:14:06.449Z,101027.84
2023-01-10T19:16:33.244Z,101026.06
2023-01-10T19:19:02.855Z,101032.94
2023-01-10T19:21:31.141Z,101025.88
2023-01-10T19:24:01.340Z,101026.59
2023-01-10T19:26:28.240Z,101029.19
2023-01-10T19:28:54.959Z,101021.25
2023-01-10T19:31:24.368Z,101024.69
2023-01-10T19:33:51.868Z,101021.13
2023-01-10T19:36:20.894Z,101015.88
2023-01-10T19:38:48.306Z,101016.75
2023-01-10T19:41:17.096Z,101016.63
2023-01-10T19:43:43.724Z,101011.31
2023-01-10T19:46:11.799Z,101010.50
2023-01-10T19:48:39.197Z,101012.28
2023-01-10T19:51:11.111Z,101010.50
2023-01-10T19:53:40.905Z,101004.44
2023-01-10T19:56:09.813Z,101003.53
2023-01-10T19:58:37.476Z,100998.31
2023-01-10T20:01:08.253Z,100998.22
2023-01-10T20:03:34.915Z,100999.94
2023-01-10T20:06:05.528Z,101000.78
2023-01-10T20:08:32.213Z,100999.94
2023-01-10T20:11:05.552Z,100997.19
2023-01-10T20:13:34.228Z,100996.31
2023-01-10T20:16:01.131Z,100993.56
2023-01-10T20:18:27.930Z,100991.13
2023-01-10T20:20:54.675Z,100984.16
2023-01-10T20:23:22.846Z,100976.16
2023-01-10T20:26:06.257Z,100974.41
2023-01-10T20:28:34.211Z,100976.06
2023-01-10T20:31:00.994Z,100969.94
2023-01-10T20:33:27.859Z,100964.75
2023-01-10T20:36:01.649Z,100961.16
2023-01-10T20:38:28.803Z,100962.88
2023-01-10T20:41:06.675Z,100955.16
2023-01-10T20:43:33.814Z,100955.84
2023-01-10T20:46:08.385Z,100963.56
2023-01-10T20:48:35.074Z,100953.19
2023-01-10T20:51:02.121Z,100952.31
2023-01-10T20:53:29.348Z,100957.41
2023-01-10T20:56:01.580Z,100948.66
2023-01-10T20:58:28.232Z,100947.91
2023-01-10T21:00:54.849Z,100952.25
2023-01-10T21:03:21.467Z,100950.50
2023-01-10T21:05:52.606Z,100946.97
2023-01-10T21:08:19.886Z,100947.19
2023-01-10T21:10:47.487Z,100950.59
2023-01-10T21:13:14.523Z,100945.47
2023-01-10T21:15:43.796Z,100945.38
2023-01-10T21:18:11.389Z,100937.50
2023-01-10T21:20:45.866Z,100936.53
2023-01-10T21:23:14.424Z,100929.56
2023-01-10T21:25:41.164Z,100928.69
2023-01-10T21:28:10.655Z,100928.78
2023-01-10T21:30:37.459Z,100926.13
2023-01-10T21:33:04.228Z,100921.03
2023-01-10T21:35:31.026Z,100926.94
2023-01-10T21:37:57.881Z,100920.88
2023-01-10T21:40:25.890Z,100920.81
2023-01-10T21:42:52.761Z,100908.75
2023-01-10T21:45:21.212Z,100905.25
2023-01-10T21:47:51.467Z,100906.91
2023-01-10T21:50:20.675Z,100910.38
2023-01-10T21:52:48.906Z,100904.38
2023-01-10T21:55:16.310Z,100898.22
2023-01-10T21:57:42.941Z,100898.25
2023-01-10T22:00:10.290Z,100892.19
2023-01-10T22:02:37.085Z,100894.03
2023-01-10T22:05:03.949Z,100889.69
2023-01-10T22:07:31.026Z,100882.59
2023-01-10T22:09:57.639Z,100872.19
2023-01-10T22:12:25.137Z,100881.03
2023-01-10T22:14:51.808Z,100883.63
2023-01-10T22:17:18.447Z,100878.50
2023-01-10T22:19:45.089Z,100877.50
2023-01-10T22:22:12.326Z,100876.69
2023-01-10T22:24:40.792Z,100870.53
2023-01-10T22:27:08.921Z,100865.34
2023-01-10T22:29:35.666Z,100855.91
2023-01-10T22:32:06.137Z,100856.81
2023-01-10T22:34:33.278Z,100852.56
2023-01-10T22:37:00.172Z,100844.75
2023-01-10T22:39:26.860Z,100846.53
2023-01-10T22:41:55.882Z,100839.91
2023-01-10T22:44:26.210Z,100836.47
2023-01-10T22:46:54.387Z,100824.38
2023-01-10T22:49:21.582Z,100822.72
2023-01-10T22:51:48.271Z,100829.59
2023-01-10T22:54:20.629Z,100817.44
2023-01-10T22:56:50.395Z,100814.13
2023-01-10T22:59:17.399Z,100801.97
2023-01-10T23:01:44.200Z,100800.97
2023-01-10T23:04:10.907Z,100794.03
2023-01-10T23:06:37.721Z,100795.91
2023-01-10T23:09:04.560Z,100796.72
2023-01-10T23:11:31.191Z,100788.06
2023-01-10T23:13:57.832Z,100790.75
2023-01-10T23:16:33.356Z,100795.09
2023-01-10T23:19:00.587Z,100785.63
2023-01-10T23:21:32.079Z,100786.44
2023-01-10T23:23:59.611Z,100789.03
2023-01-10T23:26:26.629Z,100770.75
2023-01-10T23:28:53.337Z,100777.00
2023-01-10T23:31:22.292Z,100782.22
2023-01-10T23:33:49.746Z,100775.25
2023-01-10T23:36:17.071Z,100774.44
2023-01-10T23:38:47.296Z,100763.19
2023-01-10T23:41:13.965Z,100771.00
2023-01-10T23:43:41.065Z,100751.06
2023-01-10T23:46:08.673Z,100744.03
2023-01-10T23:48:35.782Z,100754.50
2023-01-10T23:51:02.535Z,100743.19
2023-01-10T23:53:29.414Z,100736.28
2023-01-10T23:55:56.848Z,100731.91
2023-01-10T23:58:23.491Z,100735.41
